sensor_id;sensor_type;location;lat;lon;timestamp;P1;durP1;ratioP1;P2;durP2;ratioP2
55815;SDS011;41744;52.404;16.942;2024-02-21T00:00:54;24.70;;;5.90;;
55815;SDS011;41744;52.404;16.942;2024-02-21T00:03:20;15.00;;;4.33;;
55815;SDS011;41744;52.404;16.942;2024-02-21T00:05:46;18.93;;;4.77;;
55815;SDS011;41744;52.404;16.942;2024-02-21T00:08:12;14.63;;;3.57;;
55815;SDS011;41744;52.404;16.942;2024-02-21T00:10:38;12.90;;;3.80;;
55815;SDS011;41744;52.404;16.942;2024-02-21T00:13:04;21.77;;;4.30;;
55815;SDS011;41744;52.404;16.942;2024-02-21T00:15:30;19.07;;;3.70;;
55815;SDS011;41744;52.404;16.942;2024-02-21T00:17:56;18.73;;;4.00;;
55815;SDS011;41744;52.404;16.942;2024-02-21T00:20:22;18.87;;;3.73;;
55815;SDS011;41744;52.404;16.942;2024-02-21T00:22:50;20.83;;;4.60;;
55815;SDS011;41744;52.404;16.942;2024-02-21T00:25:16;23.23;;;4.13;;
55815;SDS011;41744;52.404;16.942;2024-02-21T00:27:42;18.30;;;4.07;;
55815;SDS011;41744;52.404;16.942;2024-02-21T00:30:08;18.13;;;3.63;;
55815;SDS011;41744;52.404;16.942;2024-02-21T00:32:34;18.57;;;3.57;;
55815;SDS011;41744;52.404;16.942;2024-02-21T00:35:00;19.93;;;4.33;;
55815;SDS011;41744;52.404;16.942;2024-02-21T00:37:26;16.17;;;4.03;;
55815;SDS011;41744;52.404;16.942;2024-02-21T00:39:55;22.60;;;4.73;;
55815;SDS011;41744;52.404;16.942;2024-02-21T00:42:21;21.93;;;4.47;;
55815;SDS011;41744;52.404;16.942;2024-02-21T00:44:47;18.30;;;3.57;;
55815;SDS011;41744;52.404;16.942;2024-02-21T00:47:13;16.73;;;4.50;;
55815;SDS011;41744;52.404;16.942;2024-02-21T00:49:39;15.87;;;3.60;;
55815;SDS011;41744;52.404;16.942;2024-02-21T00:52:05;16.10;;;4.23;;
55815;SDS011;41744;52.404;16.942;2024-02-21T00:54:31;21.50;;;4.27;;
55815;SDS011;41744;52.404;16.942;2024-02-21T00:56:57;19.23;;;3.87;;
55815;SDS011;41744;52.404;16.942;2024-02-21T00:59:23;18.90;;;4.23;;
55815;SDS011;41744;52.404;16.942;2024-02-21T01:01:49;13.50;;;3.93;;
55815;SDS011;41744;52.404;16.942;2024-02-21T01:04:15;18.80;;;4.43;;
55815;SDS011;41744;52.404;16.942;2024-02-21T01:06:41;21.80;;;4.90;;
55815;SDS011;41744;52.404;16.942;2024-02-21T01:09:09;17.03;;;4.17;;
55815;SDS011;41744;52.404;16.942;2024-02-21T01:11:35;23.00;;;4.13;;
55815;SDS011;41744;52.404;16.942;2024-02-21T01:14:01;18.43;;;4.13;;
55815;SDS011;41744;52.404;16.942;2024-02-21T01:16:27;19.47;;;4.20;;
55815;SDS011;41744;52.404;16.942;2024-02-21T01:18:53;21.70;;;4.30;;
55815;SDS011;41744;52.404;16.942;2024-02-21T01:21:20;18.07;;;5.23;;
55815;SDS011;41744;52.404;16.942;2024-02-21T01:23:46;20.10;;;4.37;;
55815;SDS011;41744;52.404;16.942;2024-02-21T01:26:12;14.70;;;4.37;;
55815;SDS011;41744;52.404;16.942;2024-02-21T01:28:40;20.67;;;4.90;;
55815;SDS011;41744;52.404;16.942;2024-02-21T01:31:06;15.10;;;4.50;;
55815;SDS011;41744;52.404;16.942;2024-02-21T01:33:32;17.90;;;5.07;;
55815;SDS011;41744;52.404;16.942;2024-02-21T01:36:03;25.73;;;4.40;;
55815;SDS011;41744;52.404;16.942;2024-02-21T01:38:29;23.97;;;5.63;;
55815;SDS011;41744;52.404;16.942;2024-02-21T01:40:57;19.80;;;4.43;;
55815;SDS011;41744;52.404;16.942;2024-02-21T01:43:22;17.57;;;4.77;;
55815;SDS011;41744;52.404;16.942;2024-02-21T01:45:49;24.43;;;4.80;;
55815;SDS011;41744;52.404;16.942;2024-02-21T01:48:19;17.43;;;4.40;;
55815;SDS011;41744;52.404;16.942;2024-02-21T01:50:51;19.03;;;4.43;;
55815;SDS011;41744;52.404;16.942;2024-02-21T01:53:25;20.93;;;4.77;;
55815;SDS011;41744;52.404;16.942;2024-02-21T01:55:53;22.43;;;4.63;;
55815;SDS011;41744;52.404;16.942;2024-02-21T01:58:20;24.17;;;4.63;;
55815;SDS011;41744;52.404;16.942;2024-02-21T02:00:46;20.23;;;4.27;;
55815;SDS011;41744;52.404;16.942;2024-02-21T02:03:13;14.03;;;4.13;;
55815;SDS011;41744;52.404;16.942;2024-02-21T02:08:11;21.50;;;4.57;;
55815;SDS011;41744;52.404;16.942;2024-02-21T02:10:37;17.20;;;4.30;;
55815;SDS011;41744;52.404;16.942;2024-02-21T02:13:03;19.60;;;4.57;;
55815;SDS011;41744;52.404;16.942;2024-02-21T02:18:04;20.13;;;4.87;;
55815;SDS011;41744;52.404;16.942;2024-02-21T02:20:30;16.03;;;5.00;;
55815;SDS011;41744;52.404;16.942;2024-02-21T02:22:57;21.17;;;4.20;;
55815;SDS011;41744;52.404;16.942;2024-02-21T02:25:24;20.23;;;4.40;;
55815;SDS011;41744;52.404;16.942;2024-02-21T02:27:50;22.47;;;4.77;;
55815;SDS011;41744;52.404;16.942;2024-02-21T02:30:17;21.73;;;5.40;;
55815;SDS011;41744;52.404;16.942;2024-02-21T02:32:46;14.73;;;3.97;;
55815;SDS011;41744;52.404;16.942;2024-02-21T02:35:12;21.03;;;4.90;;
55815;SDS011;41744;52.404;16.942;2024-02-21T02:37:38;18.40;;;4.90;;
55815;SDS011;41744;52.404;16.942;2024-02-21T02:40:05;13.67;;;4.00;;
55815;SDS011;41744;52.404;16.942;2024-02-21T02:42:31;21.97;;;4.63;;
55815;SDS011;41744;52.404;16.942;2024-02-21T02:44:57;12.90;;;4.00;;
55815;SDS011;41744;52.404;16.942;2024-02-21T02:47:23;26.13;;;4.57;;
55815;SDS011;41744;52.404;16.942;2024-02-21T02:49:49;18.37;;;5.23;;
55815;SDS011;41744;52.404;16.942;2024-02-21T02:52:19;13.03;;;3.97;;
55815;SDS011;41744;52.404;16.942;2024-02-21T02:54:45;15.87;;;4.50;;
55815;SDS011;41744;52.404;16.942;2024-02-21T02:57:11;15.17;;;4.73;;
55815;SDS011;41744;52.404;16.942;2024-02-21T02:59:37;25.03;;;4.93;;
55815;SDS011;41744;52.404;16.942;2024-02-21T03:02:03;20.97;;;5.33;;
55815;SDS011;41744;52.404;16.942;2024-02-21T03:04:29;20.70;;;4.53;;
55815;SDS011;41744;52.404;16.942;2024-02-21T03:06:55;19.50;;;4.47;;
55815;SDS011;41744;52.404;16.942;2024-02-21T03:09:21;25.00;;;4.90;;
55815;SDS011;41744;52.404;16.942;2024-02-21T03:11:47;19.00;;;4.40;;
55815;SDS011;41744;52.404;16.942;2024-02-21T03:14:13;20.47;;;4.90;;
55815;SDS011;41744;52.404;16.942;2024-02-21T03:16:39;18.93;;;4.67;;
55815;SDS011;41744;52.404;16.942;2024-02-21T03:19:05;14.40;;;4.47;;
55815;SDS011;41744;52.404;16.942;2024-02-21T03:21:31;16.37;;;4.70;;
55815;SDS011;41744;52.404;16.942;2024-02-21T03:23:57;19.97;;;4.67;;
55815;SDS011;41744;52.404;16.942;2024-02-21T03:26:23;17.13;;;4.90;;
55815;SDS011;41744;52.404;16.942;2024-02-21T03:28:49;23.93;;;4.60;;
55815;SDS011;41744;52.404;16.942;2024-02-21T03:31:15;17.20;;;4.27;;
55815;SDS011;41744;52.404;16.942;2024-02-21T03:33:41;18.47;;;4.30;;
55815;SDS011;41744;52.404;16.942;2024-02-21T03:36:14;17.13;;;4.37;;
55815;SDS011;41744;52.404;16.942;2024-02-21T03:38:40;18.23;;;5.20;;
55815;SDS011;41744;52.404;16.942;2024-02-21T03:41:06;19.17;;;4.33;;
55815;SDS011;41744;52.404;16.942;2024-02-21T03:43:32;23.07;;;5.27;;
55815;SDS011;41744;52.404;16.942;2024-02-21T03:45:58;18.43;;;4.80;;
55815;SDS011;41744;52.404;16.942;2024-02-21T03:48:24;15.10;;;4.20;;
55815;SDS011;41744;52.404;16.942;2024-02-21T03:50:50;25.97;;;5.90;;
55815;SDS011;41744;52.404;16.942;2024-02-21T03:53:16;14.10;;;4.43;;
55815;SDS011;41744;52.404;16.942;2024-02-21T03:55:42;20.10;;;5.17;;
55815;SDS011;41744;52.404;16.942;2024-02-21T03:58:09;17.80;;;5.23;;
55815;SDS011;41744;52.404;16.942;2024-02-21T04:00:35;16.53;;;4.93;;
55815;SDS011;41744;52.404;16.942;2024-02-21T04:03:01;15.63;;;4.43;;
55815;SDS011;41744;52.404;16.942;2024-02-21T04:05:27;22.10;;;4.73;;
55815;SDS011;41744;52.404;16.942;2024-02-21T04:07:53;17.03;;;4.40;;
55815;SDS011;41744;52.404;16.942;2024-02-21T04:10:19;15.03;;;4.30;;
55815;SDS011;41744;52.404;16.942;2024-02-21T04:12:45;12.80;;;4.30;;
55815;SDS011;41744;52.404;16.942;2024-02-21T04:15:11;16.27;;;4.20;;
55815;SDS011;41744;52.404;16.942;2024-02-21T04:17:37;20.57;;;4.03;;
55815;SDS011;41744;52.404;16.942;2024-02-21T04:20:04;13.23;;;4.27;;
55815;SDS011;41744;52.404;16.942;2024-02-21T04:22:30;19.80;;;4.37;;
55815;SDS011;41744;52.404;16.942;2024-02-21T04:24:59;19.63;;;4.20;;
55815;SDS011;41744;52.404;16.942;2024-02-21T04:27:25;20.20;;;4.73;;
55815;SDS011;41744;52.404;16.942;2024-02-21T04:29:52;17.37;;;4.37;;
55815;SDS011;41744;52.404;16.942;2024-02-21T04:32:18;21.13;;;4.10;;
55815;SDS011;41744;52.404;16.942;2024-02-21T04:34:44;18.27;;;4.27;;
55815;SDS011;41744;52.404;16.942;2024-02-21T04:37:10;14.00;;;3.97;;
55815;SDS011;41744;52.404;16.942;2024-02-21T04:39:36;23.23;;;4.23;;
55815;SDS011;41744;52.404;16.942;2024-02-21T04:42:02;12.07;;;4.20;;
55815;SDS011;41744;52.404;16.942;2024-02-21T04:44:28;22.60;;;4.70;;
55815;SDS011;41744;52.404;16.942;2024-02-21T04:46:54;19.30;;;4.37;;
55815;SDS011;41744;52.404;16.942;2024-02-21T04:49:20;17.30;;;4.13;;
55815;SDS011;41744;52.404;16.942;2024-02-21T04:51:46;15.37;;;4.40;;
55815;SDS011;41744;52.404;16.942;2024-02-21T04:54:12;24.83;;;4.53;;
55815;SDS011;41744;52.404;16.942;2024-02-21T04:56:38;16.87;;;4.27;;
55815;SDS011;41744;52.404;16.942;2024-02-21T04:59:04;18.37;;;4.43;;
55815;SDS011;41744;52.404;16.942;2024-02-21T05:01:30;13.23;;;4.23;;
55815;SDS011;41744;52.404;16.942;2024-02-21T05:03:56;21.00;;;4.67;;
55815;SDS011;41744;52.404;16.942;2024-02-21T05:06:22;22.27;;;5.03;;
55815;SDS011;41744;52.404;16.942;2024-02-21T05:08:48;17.57;;;4.43;;
55815;SDS011;41744;52.404;16.942;2024-02-21T05:11:14;16.87;;;4.37;;
55815;SDS011;41744;52.404;16.942;2024-02-21T05:13:40;32.03;;;5.10;;
55815;SDS011;41744;52.404;16.942;2024-02-21T05:16:06;16.73;;;4.13;;
55815;SDS011;41744;52.404;16.942;2024-02-21T05:18:33;17.40;;;4.50;;
55815;SDS011;41744;52.404;16.942;2024-02-21T05:20:59;19.07;;;4.50;;
55815;SDS011;41744;52.404;16.942;2024-02-21T05:23:25;17.23;;;4.60;;
55815;SDS011;41744;52.404;16.942;2024-02-21T05:25:51;13.43;;;4.80;;
55815;SDS011;41744;52.404;16.942;2024-02-21T05:28:17;16.63;;;4.40;;
55815;SDS011;41744;52.404;16.942;2024-02-21T05:30:43;14.80;;;4.20;;
55815;SDS011;41744;52.404;16.942;2024-02-21T05:33:09;17.00;;;4.97;;
55815;SDS011;41744;52.404;16.942;2024-02-21T05:35:35;15.40;;;4.43;;
55815;SDS011;41744;52.404;16.942;2024-02-21T05:38:01;16.40;;;4.67;;
55815;SDS011;41744;52.404;16.942;2024-02-21T05:40:31;19.30;;;4.83;;
55815;SDS011;41744;52.404;16.942;2024-02-21T05:42:57;16.27;;;4.60;;
55815;SDS011;41744;52.404;16.942;2024-02-21T05:45:23;19.10;;;4.40;;
55815;SDS011;41744;52.404;16.942;2024-02-21T05:47:49;16.93;;;5.53;;
55815;SDS011;41744;52.404;16.942;2024-02-21T05:50:15;15.00;;;4.70;;
55815;SDS011;41744;52.404;16.942;2024-02-21T05:52:42;22.67;;;5.60;;
55815;SDS011;41744;52.404;16.942;2024-02-21T05:55:08;21.33;;;5.13;;
55815;SDS011;41744;52.404;16.942;2024-02-21T05:57:34;13.67;;;4.87;;
55815;SDS011;41744;52.404;16.942;2024-02-21T06:00:02;15.13;;;4.23;;
55815;SDS011;41744;52.404;16.942;2024-02-21T06:02:30;19.70;;;4.60;;
55815;SDS011;41744;52.404;16.942;2024-02-21T06:04:56;16.80;;;4.93;;
55815;SDS011;41744;52.404;16.942;2024-02-21T06:07:22;20.53;;;5.20;;
55815;SDS011;41744;52.404;16.942;2024-02-21T06:09:48;18.43;;;4.87;;
55815;SDS011;41744;52.404;16.942;2024-02-21T06:12:13;16.93;;;4.60;;
55815;SDS011;41744;52.404;16.942;2024-02-21T06:14:39;25.23;;;5.20;;
55815;SDS011;41744;52.404;16.942;2024-02-21T06:17:05;15.87;;;4.50;;
55815;SDS011;41744;52.404;16.942;2024-02-21T06:19:31;24.73;;;5.30;;
55815;SDS011;41744;52.404;16.942;2024-02-21T06:21:57;24.90;;;5.40;;
55815;SDS011;41744;52.404;16.942;2024-02-21T06:24:23;23.43;;;5.10;;
55815;SDS011;41744;52.404;16.942;2024-02-21T06:26:49;18.63;;;4.63;;
55815;SDS011;41744;52.404;16.942;2024-02-21T06:29:15;26.23;;;5.40;;
55815;SDS011;41744;52.404;16.942;2024-02-21T06:31:41;20.37;;;5.30;;
55815;SDS011;41744;52.404;16.942;2024-02-21T06:34:07;15.00;;;4.87;;
55815;SDS011;41744;52.404;16.942;2024-02-21T06:36:33;18.40;;;4.67;;
55815;SDS011;41744;52.404;16.942;2024-02-21T06:38:59;16.87;;;4.70;;
55815;SDS011;41744;52.404;16.942;2024-02-21T06:41:25;14.60;;;4.33;;
55815;SDS011;41744;52.404;16.942;2024-02-21T06:43:51;19.70;;;4.97;;
55815;SDS011;41744;52.404;16.942;2024-02-21T06:46:27;14.50;;;4.43;;
55815;SDS011;41744;52.404;16.942;2024-02-21T06:48:53;17.23;;;4.77;;
55815;SDS011;41744;52.404;16.942;2024-02-21T06:51:21;20.37;;;5.13;;
55815;SDS011;41744;52.404;16.942;2024-02-21T06:53:47;17.23;;;4.70;;
55815;SDS011;41744;52.404;16.942;2024-02-21T06:56:13;19.23;;;4.50;;
55815;SDS011;41744;52.404;16.942;2024-02-21T06:58:39;13.87;;;4.27;;
55815;SDS011;41744;52.404;16.942;2024-02-21T07:01:06;13.57;;;4.50;;
55815;SDS011;41744;52.404;16.942;2024-02-21T07:03:32;14.23;;;4.27;;
55815;SDS011;41744;52.404;16.942;2024-02-21T07:05:58;20.53;;;4.67;;
55815;SDS011;41744;52.404;16.942;2024-02-21T07:08:24;11.40;;;4.33;;
55815;SDS011;41744;52.404;16.942;2024-02-21T07:10:50;14.40;;;4.83;;
55815;SDS011;41744;52.404;16.942;2024-02-21T07:13:16;17.87;;;4.67;;
55815;SDS011;41744;52.404;16.942;2024-02-21T07:15:42;21.80;;;4.77;;
55815;SDS011;41744;52.404;16.942;2024-02-21T07:18:09;18.23;;;4.47;;
55815;SDS011;41744;52.404;16.942;2024-02-21T07:20:35;18.93;;;4.10;;
55815;SDS011;41744;52.404;16.942;2024-02-21T07:23:02;17.67;;;4.50;;
55815;SDS011;41744;52.404;16.942;2024-02-21T07:25:28;13.07;;;4.17;;
55815;SDS011;41744;52.404;16.942;2024-02-21T07:27:55;21.00;;;5.13;;
55815;SDS011;41744;52.404;16.942;2024-02-21T07:30:21;21.13;;;4.30;;
55815;SDS011;41744;52.404;16.942;2024-02-21T07:32:49;19.27;;;4.33;;
55815;SDS011;41744;52.404;16.942;2024-02-21T07:35:15;15.37;;;4.80;;
55815;SDS011;41744;52.404;16.942;2024-02-21T07:37:41;11.40;;;3.83;;
55815;SDS011;41744;52.404;16.942;2024-02-21T07:40:16;18.47;;;4.70;;
55815;SDS011;41744;52.404;16.942;2024-02-21T07:42:43;14.83;;;4.57;;
55815;SDS011;41744;52.404;16.942;2024-02-21T07:45:09;17.60;;;5.17;;
55815;SDS011;41744;52.404;16.942;2024-02-21T07:47:35;14.80;;;4.83;;
55815;SDS011;41744;52.404;16.942;2024-02-21T07:50:02;14.00;;;4.43;;
55815;SDS011;41744;52.404;16.942;2024-02-21T07:52:29;12.70;;;4.40;;
55815;SDS011;41744;52.404;16.942;2024-02-21T07:54:55;14.10;;;4.60;;
55815;SDS011;41744;52.404;16.942;2024-02-21T07:57:21;14.90;;;4.93;;
55815;SDS011;41744;52.404;16.942;2024-02-21T07:59:47;21.10;;;4.27;;
55815;SDS011;41744;52.404;16.942;2024-02-21T08:02:16;18.10;;;4.60;;
55815;SDS011;41744;52.404;16.942;2024-02-21T08:04:42;17.17;;;4.27;;
55815;SDS011;41744;52.404;16.942;2024-02-21T08:07:09;13.20;;;4.27;;
55815;SDS011;41744;52.404;16.942;2024-02-21T08:09:35;19.80;;;4.80;;
55815;SDS011;41744;52.404;16.942;2024-02-21T08:12:03;18.23;;;5.20;;
55815;SDS011;41744;52.404;16.942;2024-02-21T08:14:29;24.93;;;5.20;;
55815;SDS011;41744;52.404;16.942;2024-02-21T08:16:55;18.77;;;4.40;;
55815;SDS011;41744;52.404;16.942;2024-02-21T08:19:21;17.47;;;4.37;;
55815;SDS011;41744;52.404;16.942;2024-02-21T08:21:47;17.40;;;4.70;;
55815;SDS011;41744;52.404;16.942;2024-02-21T08:24:14;17.80;;;4.73;;
55815;SDS011;41744;52.404;16.942;2024-02-21T08:26:43;15.13;;;4.23;;
55815;SDS011;41744;52.404;16.942;2024-02-21T08:29:10;16.20;;;4.60;;
55815;SDS011;41744;52.404;16.942;2024-02-21T08:31:36;15.10;;;4.67;;
55815;SDS011;41744;52.404;16.942;2024-02-21T08:34:02;16.47;;;4.60;;
55815;SDS011;41744;52.404;16.942;2024-02-21T08:36:37;17.90;;;4.03;;
55815;SDS011;41744;52.404;16.942;2024-02-21T08:39:03;17.57;;;4.47;;
55815;SDS011;41744;52.404;16.942;2024-02-21T08:41:33;16.13;;;4.30;;
55815;SDS011;41744;52.404;16.942;2024-02-21T08:43:59;14.83;;;4.67;;
55815;SDS011;41744;52.404;16.942;2024-02-21T08:46:25;11.57;;;4.23;;
55815;SDS011;41744;52.404;16.942;2024-02-21T08:48:52;16.73;;;4.57;;
55815;SDS011;41744;52.404;16.942;2024-02-21T08:51:18;24.97;;;5.93;;
55815;SDS011;41744;52.404;16.942;2024-02-21T08:53:45;21.00;;;4.67;;
55815;SDS011;41744;52.404;16.942;2024-02-21T08:56:11;18.90;;;5.03;;
55815;SDS011;41744;52.404;16.942;2024-02-21T08:58:38;16.77;;;4.60;;
55815;SDS011;41744;52.404;16.942;2024-02-21T09:01:04;15.47;;;5.03;;
55815;SDS011;41744;52.404;16.942;2024-02-21T09:03:32;20.90;;;5.33;;
55815;SDS011;41744;52.404;16.942;2024-02-21T09:05:58;11.77;;;5.13;;
55815;SDS011;41744;52.404;16.942;2024-02-21T09:08:24;21.07;;;5.70;;
55815;SDS011;41744;52.404;16.942;2024-02-21T09:10:50;15.27;;;4.90;;
55815;SDS011;41744;52.404;16.942;2024-02-21T09:13:16;18.73;;;4.60;;
55815;SDS011;41744;52.404;16.942;2024-02-21T09:15:42;13.60;;;4.83;;
55815;SDS011;41744;52.404;16.942;2024-02-21T09:18:08;19.20;;;5.40;;
55815;SDS011;41744;52.404;16.942;2024-02-21T09:20:34;13.33;;;6.00;;
55815;SDS011;41744;52.404;16.942;2024-02-21T09:23:01;14.97;;;5.10;;
55815;SDS011;41744;52.404;16.942;2024-02-21T09:25:27;12.70;;;5.13;;
55815;SDS011;41744;52.404;16.942;2024-02-21T09:27:53;17.37;;;5.43;;
55815;SDS011;41744;52.404;16.942;2024-02-21T09:30:20;16.57;;;5.77;;
55815;SDS011;41744;52.404;16.942;2024-02-21T09:32:46;24.83;;;5.80;;
55815;SDS011;41744;52.404;16.942;2024-02-21T09:35:13;18.87;;;5.20;;
55815;SDS011;41744;52.404;16.942;2024-02-21T09:37:39;12.53;;;5.20;;
55815;SDS011;41744;52.404;16.942;2024-02-21T09:40:05;17.67;;;5.43;;
55815;SDS011;41744;52.404;16.942;2024-02-21T09:42:38;11.83;;;5.30;;
55815;SDS011;41744;52.404;16.942;2024-02-21T09:45:08;13.77;;;5.00;;
55815;SDS011;41744;52.404;16.942;2024-02-21T09:48:04;17.87;;;6.07;;
55815;SDS011;41744;52.404;16.942;2024-02-21T09:50:23;19.87;;;5.30;;
55815;SDS011;41744;52.404;16.942;2024-02-21T09:52:50;11.77;;;4.60;;
55815;SDS011;41744;52.404;16.942;2024-02-21T09:55:17;15.00;;;5.67;;
55815;SDS011;41744;52.404;16.942;2024-02-21T09:57:43;18.70;;;5.80;;
55815;SDS011;41744;52.404;16.942;2024-02-21T10:00:10;22.23;;;6.03;;
55815;SDS011;41744;52.404;16.942;2024-02-21T10:02:36;20.30;;;5.83;;
55815;SDS011;41744;52.404;16.942;2024-02-21T10:05:02;13.53;;;5.13;;
55815;SDS011;41744;52.404;16.942;2024-02-21T10:07:30;14.27;;;5.60;;
55815;SDS011;41744;52.404;16.942;2024-02-21T10:10:01;20.63;;;6.33;;
55815;SDS011;41744;52.404;16.942;2024-02-21T10:12:27;18.80;;;6.53;;
55815;SDS011;41744;52.404;16.942;2024-02-21T10:15:05;20.17;;;6.03;;
55815;SDS011;41744;52.404;16.942;2024-02-21T10:17:32;21.50;;;5.73;;
55815;SDS011;41744;52.404;16.942;2024-02-21T10:20:08;17.73;;;5.73;;
55815;SDS011;41744;52.404;16.942;2024-02-21T10:22:34;15.30;;;5.70;;
55815;SDS011;41744;52.404;16.942;2024-02-21T10:25:08;19.80;;;6.37;;
55815;SDS011;41744;52.404;16.942;2024-02-21T10:27:34;16.60;;;5.60;;
55815;SDS011;41744;52.404;16.942;2024-02-21T10:30:04;17.10;;;6.07;;
55815;SDS011;41744;52.404;16.942;2024-02-21T10:32:30;20.87;;;5.73;;
55815;SDS011;41744;52.404;16.942;2024-02-21T10:35:03;15.60;;;5.23;;
55815;SDS011;41744;52.404;16.942;2024-02-21T10:37:29;15.93;;;5.40;;
55815;SDS011;41744;52.404;16.942;2024-02-21T10:39:56;18.37;;;5.30;;
55815;SDS011;41744;52.404;16.942;2024-02-21T10:42:22;16.53;;;5.40;;
55815;SDS011;41744;52.404;16.942;2024-02-21T10:44:50;11.80;;;5.27;;
55815;SDS011;41744;52.404;16.942;2024-02-21T10:47:17;17.57;;;5.40;;
55815;SDS011;41744;52.404;16.942;2024-02-21T10:49:46;16.73;;;5.87;;
55815;SDS011;41744;52.404;16.942;2024-02-21T10:57:23;14.60;;;5.13;;
55815;SDS011;41744;52.404;16.942;2024-02-21T10:59:49;20.20;;;5.33;;
55815;SDS011;41744;52.404;16.942;2024-02-21T11:02:15;15.70;;;4.83;;
55815;SDS011;41744;52.404;16.942;2024-02-21T11:04:41;18.03;;;5.63;;
55815;SDS011;41744;52.404;16.942;2024-02-21T11:07:08;13.87;;;4.70;;
55815;SDS011;41744;52.404;16.942;2024-02-21T11:09:34;16.17;;;4.90;;
55815;SDS011;41744;52.404;16.942;2024-02-21T11:12:04;11.83;;;4.50;;
55815;SDS011;41744;52.404;16.942;2024-02-21T11:14:30;14.60;;;4.77;;
55815;SDS011;41744;52.404;16.942;2024-02-21T11:17:14;13.90;;;5.13;;
55815;SDS011;41744;52.404;16.942;2024-02-21T11:19:40;13.50;;;5.03;;
55815;SDS011;41744;52.404;16.942;2024-02-21T11:22:13;16.93;;;5.10;;
55815;SDS011;41744;52.404;16.942;2024-02-21T11:24:40;20.30;;;5.37;;
55815;SDS011;41744;52.404;16.942;2024-02-21T11:27:14;13.87;;;5.53;;
55815;SDS011;41744;52.404;16.942;2024-02-21T11:29:47;13.07;;;5.00;;
55815;SDS011;41744;52.404;16.942;2024-02-21T11:32:17;11.03;;;5.03;;
55815;SDS011;41744;52.404;16.942;2024-02-21T11:34:53;16.73;;;5.70;;
55815;SDS011;41744;52.404;16.942;2024-02-21T11:37:20;13.37;;;5.23;;
55815;SDS011;41744;52.404;16.942;2024-02-21T11:39:45;20.60;;;5.20;;
55815;SDS011;41744;52.404;16.942;2024-02-21T11:42:13;24.23;;;5.60;;
55815;SDS011;41744;52.404;16.942;2024-02-21T11:44:39;16.40;;;5.97;;
55815;SDS011;41744;52.404;16.942;2024-02-21T11:47:07;20.83;;;6.83;;
55815;SDS011;41744;52.404;16.942;2024-02-21T11:49:44;20.30;;;6.03;;
55815;SDS011;41744;52.404;16.942;2024-02-21T11:52:11;20.70;;;6.07;;
55815;SDS011;41744;52.404;16.942;2024-02-21T11:54:37;18.63;;;6.20;;
55815;SDS011;41744;52.404;16.942;2024-02-21T11:57:03;15.93;;;5.47;;
55815;SDS011;41744;52.404;16.942;2024-02-21T11:59:30;15.30;;;5.60;;
55815;SDS011;41744;52.404;16.942;2024-02-21T12:01:57;17.37;;;6.23;;
55815;SDS011;41744;52.404;16.942;2024-02-21T12:04:23;15.83;;;6.20;;
55815;SDS011;41744;52.404;16.942;2024-02-21T12:06:50;15.70;;;5.80;;
55815;SDS011;41744;52.404;16.942;2024-02-21T12:09:16;16.60;;;6.23;;
55815;SDS011;41744;52.404;16.942;2024-02-21T12:11:43;17.93;;;6.13;;
55815;SDS011;41744;52.404;16.942;2024-02-21T12:14:09;17.90;;;6.33;;
55815;SDS011;41744;52.404;16.942;2024-02-21T12:16:35;16.80;;;6.07;;
55815;SDS011;41744;52.404;16.942;2024-02-21T12:19:04;26.47;;;6.47;;
55815;SDS011;41744;52.404;16.942;2024-02-21T12:21:31;19.57;;;6.60;;
55815;SDS011;41744;52.404;16.942;2024-02-21T12:23:58;15.53;;;6.27;;
55815;SDS011;41744;52.404;16.942;2024-02-21T12:26:24;17.30;;;6.70;;
55815;SDS011;41744;52.404;16.942;2024-02-21T12:28:50;24.60;;;6.23;;
55815;SDS011;41744;52.404;16.942;2024-02-21T12:31:16;20.00;;;6.17;;
55815;SDS011;41744;52.404;16.942;2024-02-21T12:33:43;23.77;;;6.87;;
55815;SDS011;41744;52.404;16.942;2024-02-21T12:36:09;21.43;;;6.20;;
55815;SDS011;41744;52.404;16.942;2024-02-21T12:38:35;20.57;;;6.43;;
55815;SDS011;41744;52.404;16.942;2024-02-21T12:41:01;23.00;;;6.30;;
55815;SDS011;41744;52.404;16.942;2024-02-21T12:43:28;19.93;;;6.10;;
55815;SDS011;41744;52.404;16.942;2024-02-21T12:45:54;17.73;;;6.03;;
55815;SDS011;41744;52.404;16.942;2024-02-21T12:48:20;17.80;;;6.33;;
55815;SDS011;41744;52.404;16.942;2024-02-21T12:50:48;19.70;;;6.63;;
55815;SDS011;41744;52.404;16.942;2024-02-21T12:53:17;20.23;;;6.57;;
55815;SDS011;41744;52.404;16.942;2024-02-21T12:55:46;14.63;;;6.47;;
55815;SDS011;41744;52.404;16.942;2024-02-21T12:58:12;20.87;;;6.90;;
55815;SDS011;41744;52.404;16.942;2024-02-21T13:00:38;21.60;;;6.93;;
55815;SDS011;41744;52.404;16.942;2024-02-21T13:03:04;21.10;;;6.80;;
55815;SDS011;41744;52.404;16.942;2024-02-21T13:05:30;16.97;;;7.03;;
55815;SDS011;41744;52.404;16.942;2024-02-21T13:07:57;20.20;;;6.30;;
55815;SDS011;41744;52.404;16.942;2024-02-21T13:10:23;16.00;;;6.53;;
55815;SDS011;41744;52.404;16.942;2024-02-21T13:12:50;21.73;;;6.40;;
55815;SDS011;41744;52.404;16.942;2024-02-21T13:15:16;23.20;;;6.90;;
55815;SDS011;41744;52.404;16.942;2024-02-21T13:17:43;19.17;;;6.30;;
55815;SDS011;41744;52.404;16.942;2024-02-21T13:20:09;17.10;;;6.50;;
55815;SDS011;41744;52.404;16.942;2024-02-21T13:22:36;16.00;;;5.63;;
55815;SDS011;41744;52.404;16.942;2024-02-21T13:25:02;20.30;;;6.63;;
55815;SDS011;41744;52.404;16.942;2024-02-21T13:27:28;20.23;;;6.10;;
55815;SDS011;41744;52.404;16.942;2024-02-21T13:29:54;16.13;;;6.07;;
55815;SDS011;41744;52.404;16.942;2024-02-21T13:32:20;25.57;;;6.83;;
55815;SDS011;41744;52.404;16.942;2024-02-21T13:34:46;16.70;;;6.50;;
55815;SDS011;41744;52.404;16.942;2024-02-21T13:37:12;19.40;;;6.70;;
55815;SDS011;41744;52.404;16.942;2024-02-21T13:39:39;17.00;;;6.03;;
55815;SDS011;41744;52.404;16.942;2024-02-21T13:42:05;20.43;;;6.80;;
55815;SDS011;41744;52.404;16.942;2024-02-21T13:44:31;19.20;;;6.10;;
55815;SDS011;41744;52.404;16.942;2024-02-21T13:46:58;18.10;;;6.60;;
55815;SDS011;41744;52.404;16.942;2024-02-21T13:49:23;16.43;;;6.23;;
55815;SDS011;41744;52.404;16.942;2024-02-21T13:51:49;17.33;;;6.23;;
55815;SDS011;41744;52.404;16.942;2024-02-21T13:54:15;17.47;;;6.57;;
55815;SDS011;41744;52.404;16.942;2024-02-21T13:56:44;17.67;;;6.03;;
55815;SDS011;41744;52.404;16.942;2024-02-21T13:59:11;19.03;;;5.93;;
55815;SDS011;41744;52.404;16.942;2024-02-21T14:01:38;17.33;;;6.27;;
55815;SDS011;41744;52.404;16.942;2024-02-21T14:04:04;21.23;;;6.53;;
55815;SDS011;41744;52.404;16.942;2024-02-21T14:06:30;16.60;;;6.07;;
55815;SDS011;41744;52.404;16.942;2024-02-21T14:08:56;20.43;;;6.53;;
55815;SDS011;41744;52.404;16.942;2024-02-21T14:11:22;18.37;;;6.23;;
55815;SDS011;41744;52.404;16.942;2024-02-21T14:13:48;22.37;;;7.20;;
55815;SDS011;41744;52.404;16.942;2024-02-21T14:16:14;21.40;;;6.90;;
55815;SDS011;41744;52.404;16.942;2024-02-21T14:18:40;19.40;;;6.20;;
55815;SDS011;41744;52.404;16.942;2024-02-21T14:21:10;14.53;;;5.57;;
55815;SDS011;41744;52.404;16.942;2024-02-21T14:23:37;15.93;;;5.90;;
55815;SDS011;41744;52.404;16.942;2024-02-21T14:26:03;16.63;;;5.67;;
55815;SDS011;41744;52.404;16.942;2024-02-21T14:28:30;17.30;;;5.77;;